createdAt,value
2017-12-17T00:02:15.639Z,100498.73
2017-12-17T00:04:43.963Z,100496.39
2017-12-17T00:07:13.088Z,100498.43
2017-12-17T00:09:41.408Z,100495.44
2017-12-17T00:12:09.761Z,100495.61
2017-12-17T00:14:38.126Z,100501.40
2017-12-17T00:17:06.479Z,100506.19
2017-12-17T00:19:35.576Z,100506.48
2017-12-17T00:22:04.693Z,100507.39
2017-12-17T00:27:30.724Z,100514.98
2017-12-17T00:29:59.064Z,100515.34
2017-12-17T00:32:27.399Z,100516.78
2017-12-17T00:34:55.883Z,100513.62
2017-12-17T00:37:24.257Z,100513.50
2017-12-17T00:39:52.588Z,100511.71
2017-12-17T00:42:20.988Z,100510.20
2017-12-17T00:44:49.324Z,100519.91
2017-12-17T00:47:18.481Z,100523.29
2017-12-17T00:49:46.817Z,100525.02
2017-12-17T00:52:15.150Z,100530.48
2017-12-17T00:54:43.492Z,100531.23
2017-12-17T00:57:12.668Z,100524.59
2017-12-17T00:59:40.990Z,100532.98
2017-12-17T01:02:09.379Z,100538.81
2017-12-17T01:04:37.808Z,100539.64
2017-12-17T01:07:06.895Z,100539.30
2017-12-17T01:09:35.248Z,100542.39
2017-12-17T01:12:03.584Z,100546.10
2017-12-17T01:14:31.901Z,100543.97
2017-12-17T01:17:00.304Z,100547.03
2017-12-17T01:19:28.659Z,100552.23
2017-12-17T01:21:57.258Z,100554.27
2017-12-17T01:24:25.622Z,100560.59
2017-12-17T01:26:54.031Z,100561.03
2017-12-17T01:29:23.134Z,100561.52
2017-12-17T01:31:52.261Z,100569.82
2017-12-17T01:34:20.589Z,100567.24
2017-12-17T01:36:49.021Z,100565.06
2017-12-17T01:39:17.390Z,100566.34
2017-12-17T01:41:45.715Z,100573.39
2017-12-17T01:44:14.068Z,100579.08
2017-12-17T01:46:42.434Z,100578.14
2017-12-17T01:49:10.757Z,100583.75
2017-12-17T01:51:39.141Z,100585.92
2017-12-17T01:54:08.239Z,100586.45
2017-12-17T01:56:37.345Z,100585.86
2017-12-17T01:59:06.467Z,100585.80
2017-12-17T02:01:34.796Z,100594.02
2017-12-17T02:04:03.112Z,100601.28
2017-12-17T02:06:31.506Z,100586.66
2017-12-17T02:08:59.832Z,100597.77
2017-12-17T02:11:28.944Z,100592.81
2017-12-17T02:13:57.344Z,100594.30
2017-12-17T02:16:25.680Z,100601.28
2017-12-17T02:18:54.811Z,100596.87
2017-12-17T02:21:23.192Z,100599.02
2017-12-17T02:23:51.505Z,100594.95
2017-12-17T02:26:19.906Z,100598.59
2017-12-17T02:28:48.251Z,100603.31
2017-12-17T02:31:16.612Z,100599.70
2017-12-17T02:33:44.962Z,100600.00
2017-12-17T02:36:14.042Z,100600.70
2017-12-17T02:38:43.159Z,100602.69
2017-12-17T02:41:11.482Z,100612.50
2017-12-17T02:43:39.861Z,100610.74
2017-12-17T02:46:08.987Z,100619.48
2017-12-17T02:48:38.108Z,100613.17
2017-12-17T02:51:06.495Z,100614.20
2017-12-17T02:53:34.824Z,100615.95
2017-12-17T02:56:03.188Z,100621.20
2017-12-17T02:58:31.536Z,100619.24
2017-12-17T03:00:59.996Z,100627.35
2017-12-17T03:03:28.327Z,100626.33
2017-12-17T03:05:56.672Z,100628.13
2017-12-17T03:08:25.023Z,100619.48
2017-12-17T03:10:54.250Z,100626.14
2017-12-17T03:13:22.580Z,100638.48
2017-12-17T03:15:51.732Z,100641.22
2017-12-17T03:18:20.069Z,100641.13
2017-12-17T03:20:48.465Z,100641.45
2017-12-17T03:23:17.622Z,100641.66
2017-12-17T03:25:46.722Z,100641.19
2017-12-17T03:28:15.087Z,100645.75
2017-12-17T03:30:43.500Z,100649.88
2017-12-17T03:33:12.677Z,100654.33
2017-12-17T03:35:41.052Z,100650.03
2017-12-17T03:38:10.177Z,100663.08
2017-12-17T03:40:38.488Z,100660.17
2017-12-17T03:45:42.830Z,100668.20
2017-12-17T03:48:11.161Z,100663.42
2017-12-17T03:50:39.495Z,100669.41
2017-12-17T03:53:07.828Z,100675.03
2017-12-17T03:55:36.245Z,100676.40
2017-12-17T03:58:04.677Z,100677.67
2017-12-17T04:00:33.019Z,100671.02
2017-12-17T04:03:01.472Z,100673.11
2017-12-17T04:05:29.793Z,100673.14
2017-12-17T04:07:58.892Z,100675.28
2017-12-17T04:10:28.042Z,100672.81
2017-12-17T04:12:56.356Z,100674.44
2017-12-17T04:15:25.464Z,100672.31
2017-12-17T04:17:54.580Z,100677.31
2017-12-17T04:20:22.951Z,100676.63
2017-12-17T04:22:51.268Z,100671.78
2017-12-17T04:25:19.589Z,100673.93
2017-12-17T04:27:48.712Z,100686.83
2017-12-17T04:30:17.032Z,100687.29
2017-12-17T04:32:45.380Z,100683.92
2017-12-17T04:35:13.729Z,100691.09
2017-12-17T04:37:42.057Z,100696.05
2017-12-17T04:40:10.417Z,100706.89
2017-12-17T04:42:38.738Z,100704.28
2017-12-17T04:45:07.865Z,100704.41
2017-12-17T04:47:36.211Z,100703.69
2017-12-17T04:50:05.314Z,100711.92
2017-12-17T04:52:34.474Z,100715.23
2017-12-17T04:55:02.816Z,100713.80
2017-12-17T04:57:31.148Z,100712.34
2017-12-17T04:59:59.510Z,100716.41
2017-12-17T05:02:27.911Z,100709.14
2017-12-17T05:04:56.292Z,100722.14
2017-12-17T05:07:25.391Z,100717.23
2017-12-17T05:09:54.479Z,100715.72
2017-12-17T05:12:23.591Z,100718.58
2017-12-17T05:14:51.924Z,100724.55
2017-12-17T05:17:20.284Z,100718.69
2017-12-17T05:19:48.708Z,100720.02
2017-12-17T05:22:17.794Z,100714.42
2017-12-17T05:24:46.142Z,100722.94
2017-12-17T05:27:14.502Z,100723.09
2017-12-17T05:29:42.840Z,100728.47
2017-12-17T05:32:11.954Z,100728.13
2017-12-17T05:34:40.321Z,100735.90
2017-12-17T05:37:09.429Z,100730.72
2017-12-17T05:39:37.770Z,100734.19
2017-12-17T05:42:06.161Z,100735.02
2017-12-17T05:44:35.259Z,100747.95
2017-12-17T05:47:04.368Z,100747.24
2017-12-17T05:49:32.700Z,100750.14
2017-12-17T05:52:01.079Z,100749.67
2017-12-17T05:54:29.395Z,100761.46
2017-12-17T05:56:57.873Z,100769.98
2017-12-17T05:59:27.020Z,100765.45
2017-12-17T06:01:55.347Z,100770.98
2017-12-17T06:04:24.549Z,100777.68
2017-12-17T06:06:52.896Z,100775.92
2017-12-17T06:09:21.232Z,100774.48
2017-12-17T06:11:49.574Z,100776.23
2017-12-17T06:14:18.652Z,100779.70
2017-12-17T06:16:47.028Z,100780.38
2017-12-17T06:19:15.366Z,100782.28
2017-12-17T06:21:43.709Z,100788.67
2017-12-17T06:24:12.844Z,100785.56
2017-12-17T06:26:41.176Z,100796.66
2017-12-17T06:29:10.275Z,100795.98
2017-12-17T06:31:39.551Z,100801.45
2017-12-17T06:34:07.880Z,100807.95
2017-12-17T06:36:36.217Z,100814.62
2017-12-17T06:39:05.386Z,100821.83
2017-12-17T06:41:33.790Z,100814.20
2017-12-17T06:44:02.897Z,100821.42
2017-12-17T06:46:31.341Z,100825.96
2017-12-17T06:48:59.675Z,100823.99
2017-12-17T06:51:27.997Z,100824.92
2017-12-17T06:53:56.395Z,100832.87
2017-12-17T06:56:25.501Z,100837.50
2017-12-17T06:58:54.585Z,100846.48
2017-12-17T07:01:22.926Z,100849.51
2017-12-17T07:03:51.253Z,100846.42
2017-12-17T07:06:20.440Z,100849.75
2017-12-17T07:08:48.832Z,100855.14
2017-12-17T07:11:17.164Z,100855.76
2017-12-17T07:13:46.388Z,100864.19
2017-12-17T07:16:14.717Z,100868.30
2017-12-17T07:18:43.042Z,100874.87
2017-12-17T07:21:11.400Z,100876.48
2017-12-17T07:23:39.712Z,100882.55
2017-12-17T07:26:08.049Z,100888.44
2017-12-17T07:28:36.422Z,100885.34
2017-12-17T07:31:05.278Z,100899.13
2017-12-17T07:33:33.603Z,100909.17
2017-12-17T07:36:01.977Z,100906.15
2017-12-17T07:38:30.301Z,100907.77
2017-12-17T07:40:58.629Z,100910.03
2017-12-17T07:43:26.964Z,100921.81
2017-12-17T07:45:55.312Z,100917.88
2017-12-17T07:48:24.642Z,100926.03
2017-12-17T07:50:52.980Z,100924.13
2017-12-17T07:53:22.224Z,100931.74
2017-12-17T07:55:50.666Z,100942.44
2017-12-17T07:58:19.749Z,100942.83
2017-12-17T08:00:48.078Z,100940.55
2017-12-17T08:03:16.538Z,100955.80
2017-12-17T08:05:44.867Z,100957.65
2017-12-17T08:08:13.217Z,100956.55
2017-12-17T08:10:41.539Z,100964.30
2017-12-17T08:13:11.085Z,100959.64
2017-12-17T08:15:39.742Z,100966.02
2017-12-17T08:18:08.843Z,100972.16
2017-12-17T08:20:37.956Z,100969.64
2017-12-17T08:23:06.309Z,100978.95
2017-12-17T08:25:35.438Z,100978.33
2017-12-17T08:28:03.853Z,100980.16
2017-12-17T08:30:33.049Z,100982.47
2017-12-17T08:33:03.723Z,100986.33
2017-12-17T08:35:32.851Z,100985.34
2017-12-17T08:38:01.172Z,100995.14
2017-12-17T08:40:29.497Z,101005.19
2017-12-17T08:42:57.950Z,101008.52
2017-12-17T08:45:27.049Z,101010.39
2017-12-17T08:47:56.212Z,101013.66
2017-12-17T08:50:24.613Z,101015.45
2017-12-17T08:52:53.760Z,101018.04
2017-12-17T08:55:22.145Z,101021.60
2017-12-17T08:57:50.548Z,101037.78
2017-12-17T09:00:18.944Z,101036.14
2017-12-17T09:02:47.302Z,101042.69
2017-12-17T09:05:15.735Z,101051.14
2017-12-17T09:07:44.102Z,101050.69
2017-12-17T09:10:12.451Z,101056.21
2017-12-17T09:12:41.634Z,101069.94
2017-12-17T09:15:10.000Z,101067.26
2017-12-17T09:17:38.426Z,101068.20
2017-12-17T09:20:06.799Z,101070.45
2017-12-17T09:22:35.942Z,101073.26
2017-12-17T09:25:04.402Z,101078.21
2017-12-17T09:27:32.760Z,101068.05
2017-12-17T09:30:01.115Z,101076.98
2017-12-17T09:32:29.516Z,101076.81
2017-12-17T09:34:57.909Z,101079.23
2017-12-17T09:37:26.281Z,101087.63
2017-12-17T09:39:54.879Z,101084.61
2017-12-17T09:42:23.263Z,101083.88
2017-12-17T09:44:51.634Z,101086.96
2017-12-17T09:47:19.971Z,101088.23
2017-12-17T09:49:49.085Z,101100.02
2017-12-17T09:52:17.415Z,101111.52
2017-12-17T09:54:45.738Z,101113.77
2017-12-17T09:57:14.104Z,101114.47
2017-12-17T09:59:43.239Z,101119.08
2017-12-17T10:02:11.637Z,101121.59
2017-12-17T10:04:39.976Z,101118.34
2017-12-17T10:07:08.440Z,101119.16
2017-12-17T10:09:36.788Z,101125.88
2017-12-17T10:12:05.884Z,101126.30
2017-12-17T10:14:34.246Z,101127.12
2017-12-17T10:17:02.645Z,101133.06
2017-12-17T10:19:31.023Z,101129.89
2017-12-17T10:21:59.360Z,101128.87
2017-12-17T10:24:27.676Z,101133.48
2017-12-17T10:26:56.020Z,101131.63
2017-12-17T10:29:24.362Z,101143.54
2017-12-17T10:31:52.808Z,101145.20
2017-12-17T10:34:21.243Z,101149.91
2017-12-17T10:36:49.562Z,101146.96
2017-12-17T10:39:19.419Z,101151.66
2017-12-17T10:41:47.856Z,101149.29
2017-12-17T10:44:16.226Z,101148.92
2017-12-17T10:46:44.552Z,101155.54
2017-12-17T10:49:12.872Z,101151.06
2017-12-17T10:51:41.237Z,101154.76
2017-12-17T10:54:09.585Z,101160.03
2017-12-17T10:56:37.975Z,101157.50
2017-12-17T10:59:06.458Z,101161.02
2017-12-17T11:01:34.791Z,101160.28
2017-12-17T11:04:03.923Z,101168.56
2017-12-17T11:06:32.243Z,101162.97
2017-12-17T11:09:00.560Z,101157.43
2017-12-17T11:11:28.922Z,101155.22
2017-12-17T11:13:57.280Z,101157.80
2017-12-17T11:16:26.380Z,101164.60
2017-12-17T11:18:54.737Z,101156.81
2017-12-17T11:21:23.097Z,101165.95
2017-12-17T11:23:51.432Z,101166.77
2017-12-17T11:26:20.528Z,101169.06
2017-12-17T11:28:49.704Z,101164.27
2017-12-17T11:31:18.098Z,101163.58
2017-12-17T11:33:47.184Z,101164.17
2017-12-17T11:36:16.308Z,101164.20
2017-12-17T11:38:44.661Z,101163.41
2017-12-17T11:41:13.766Z,101165.45
2017-12-17T11:43:42.903Z,101154.32
2017-12-17T11:46:11.296Z,101168.92
2017-12-17T11:48:39.611Z,101171.27
2017-12-17T11:51:08.025Z,101180.33
2017-12-17T11:53:37.070Z,101181.34
2017-12-17T11:56:06.176Z,101179.67
2017-12-17T11:58:35.307Z,101181.70
2017-12-17T12:01:03.836Z,101174.30
2017-12-17T12:03:33.695Z,101175.58
2017-12-17T12:06:02.045Z,101179.13
2017-12-17T12:08:31.252Z,101172.14
2017-12-17T12:10:59.601Z,101180.07
2017-12-17T12:13:27.936Z,101175.56
2017-12-17T12:15:56.317Z,101184.39
2017-12-17T12:18:24.697Z,101178.73
2017-12-17T12:20:53.031Z,101179.14
2017-12-17T12:23:22.136Z,101176.64
2017-12-17T12:25:50.495Z,101185.02
2017-12-17T12:28:19.636Z,101190.30
2017-12-17T12:30:47.976Z,101185.41
2017-12-17T12:33:17.061Z,101191.66
2017-12-17T12:35:46.189Z,101191.17
2017-12-17T12:38:14.536Z,101196.02
2017-12-17T12:40:42.924Z,101196.75
2017-12-17T12:43:12.112Z,101196.90
2017-12-17T12:45:40.505Z,101200.00
2017-12-17T12:48:09.593Z,101195.91
2017-12-17T12:50:38.743Z,101207.13
2017-12-17T12:53:07.100Z,101213.04
2017-12-17T12:55:35.487Z,101216.73
2017-12-17T12:58:03.868Z,101210.77
2017-12-17T13:00:32.221Z,101211.19
2017-12-17T13:03:00.589Z,101211.45
2017-12-17T13:05:29.691Z,101219.98
2017-12-17T13:07:58.017Z,101222.22
2017-12-17T13:10:26.440Z,101210.51
2017-12-17T13:12:54.779Z,101222.24
2017-12-17T13:15:23.096Z,101222.54
2017-12-17T13:17:52.213Z,101222.98
2017-12-17T13:20:20.535Z,101226.95
2017-12-17T13:22:48.877Z,101223.64
2017-12-17T13:25:17.229Z,101229.73
2017-12-17T13:27:45.557Z,101231.71
2017-12-17T13:30:13.892Z,101228.72
2017-12-17T13:32:43.048Z,101241.04
2017-12-17T13:35:11.550Z,101245.25
2017-12-17T13:37:40.668Z,101245.92
2017-12-17T13:40:09.040Z,101243.82
2017-12-17T13:42:37.367Z,101242.39
2017-12-17T13:45:05.704Z,101241.70
2017-12-17T13:47:34.070Z,101235.44
2017-12-17T13:50:02.399Z,101238.27
2017-12-17T13:52:30.731Z,101249.94
2017-12-17T13:54:59.084Z,101247.16
2017-12-17T13:57:28.192Z,101249.87
2017-12-17T13:59:56.555Z,101255.39
2017-12-17T14:02:25.037Z,101255.79
2017-12-17T14:04:54.160Z,101259.33
2017-12-17T14:07:22.524Z,101268.70
2017-12-17T14:09:50.848Z,101264.69
2017-12-17T14:12:19.207Z,101265.34
2017-12-17T14:14:47.571Z,101269.11
2017-12-17T14:17:15.925Z,101267.27
2017-12-17T14:19:45.076Z,101274.76
2017-12-17T14:22:13.392Z,101271.97
2017-12-17T14:24:42.504Z,101278.52
2017-12-17T14:27:10.848Z,101287.24
2017-12-17T14:29:39.163Z,101289.40
2017-12-17T14:32:07.524Z,101294.11
2017-12-17T14:34:35.900Z,101290.91
2017-12-17T14:37:04.299Z,101305.17
2017-12-17T14:39:32.645Z,101299.21
2017-12-17T14:42:01.756Z,101305.67
2017-12-17T14:44:30.847Z,101309.87
2017-12-17T14:46:59.230Z,101312.65
2017-12-17T14:49:27.577Z,101311.97
2017-12-17T14:51:55.898Z,101316.30
2017-12-17T14:54:24.265Z,101317.66
2017-12-17T14:56:52.584Z,101321.34
2017-12-17T14:59:20.949Z,101324.10
2017-12-17T15:01:49.267Z,101326.11
2017-12-17T15:04:19.116Z,101328.22
2017-12-17T15:06:47.538Z,101330.09
2017-12-17T15:09:15.859Z,101334.00
2017-12-17T15:11:44.948Z,101336.01
2017-12-17T15:14:14.297Z,101327.12
2017-12-17T15:16:42.644Z,101339.94
2017-12-17T15:19:10.979Z,101342.30
2017-12-17T15:21:39.361Z,101342.89
2017-12-17T15:24:07.719Z,101348.27
2017-12-17T15:26:36.054Z,101353.14
2017-12-17T15:29:04.465Z,101362.01
2017-12-17T15:31:32.797Z,101371.05
2017-12-17T15:34:01.932Z,101370.45
2017-12-17T15:36:30.251Z,101376.26
2017-12-17T15:38:58.594Z,101379.45
2017-12-17T15:41:27.081Z,101385.65
2017-12-17T15:43:55.366Z,101384.88
2017-12-17T15:46:23.700Z,101388.24
2017-12-17T15:48:52.039Z,101386.90
2017-12-17T15:51:21.196Z,101384.90
2017-12-17T15:53:49.519Z,101386.77
2017-12-17T15:56:18.632Z,101400.98
2017-12-17T15:58:47.019Z,101394.88
2017-12-17T16:01:15.401Z,101401.26
2017-12-17T16:03:43.772Z,101407.45
2017-12-17T16:06:12.117Z,101409.13
2017-12-17T16:08:40.518Z,101406.45
2017-12-17T16:11:09.667Z,101418.08
2017-12-17T16:13:38.049Z,101416.64
2017-12-17T16:16:06.415Z,101420.02
2017-12-17T16:18:34.880Z,101427.55
2017-12-17T16:21:03.308Z,101425.28
2017-12-17T16:23:31.680Z,101430.93
2017-12-17T16:25:59.989Z,101425.16
2017-12-17T16:28:28.345Z,101436.38
2017-12-17T16:30:56.676Z,101435.83
2017-12-17T16:33:25.030Z,101418.25
2017-12-17T16:35:53.366Z,101437.83
2017-12-17T16:38:21.692Z,101445.98
2017-12-17T16:40:50.043Z,101454.16
2017-12-17T16:43:19.180Z,101455.64
2017-12-17T16:45:47.527Z,101453.13
2017-12-17T16:48:15.876Z,101454.05
2017-12-17T16:50:44.201Z,101458.58
2017-12-17T16:53:12.791Z,101463.85
2017-12-17T16:55:41.126Z,101463.71
2017-12-17T16:58:10.205Z,101470.91
2017-12-17T17:00:38.561Z,101464.63
2017-12-17T17:03:06.890Z,101470.77
2017-12-17T17:05:35.226Z,101468.39
2017-12-17T17:08:03.579Z,101472.84
2017-12-17T17:10:31.911Z,101474.95
2017-12-17T17:13:01.034Z,101476.41
2017-12-17T17:15:29.349Z,101477.21
2017-12-17T17:17:57.724Z,101481.20
2017-12-17T17:20:26.107Z,101478.23
2017-12-17T17:22:54.439Z,101482.17
2017-12-17T17:25:22.795Z,101480.59
2017-12-17T17:27:51.906Z,101480.17
2017-12-17T17:30:20.267Z,101483.42
2017-12-17T17:32:49.367Z,101478.70
2017-12-17T17:35:17.721Z,101479.95
2017-12-17T17:37:46.849Z,101480.19
2017-12-17T17:40:15.197Z,101487.57
2017-12-17T17:42:43.527Z,101482.77
2017-12-17T17:45:11.961Z,101484.30
2017-12-17T17:47:41.125Z,101485.30
2017-12-17T17:50:09.466Z,101492.29
2017-12-17T17:52:37.843Z,101492.05
2017-12-17T17:55:06.206Z,101483.17
2017-12-17T17:57:35.279Z,101480.58
2017-12-17T18:00:03.604Z,101483.40
2017-12-17T18:02:31.963Z,101486.59
2017-12-17T18:05:00.314Z,101484.61
2017-12-17T18:07:28.664Z,101486.98
2017-12-17T18:09:57.001Z,101483.45
2017-12-17T18:12:25.545Z,101485.41
2017-12-17T18:14:53.861Z,101485.09
2017-12-17T18:17:22.229Z,101492.57
2017-12-17T18:19:50.606Z,101489.06
2017-12-17T18:22:18.969Z,101493.54
2017-12-17T18:24:48.212Z,101493.27
2017-12-17T18:27:16.548Z,101496.28
2017-12-17T18:29:45.642Z,101505.98
2017-12-17T18:32:14.931Z,101498.16
2017-12-17T18:34:44.029Z,101494.93
2017-12-17T18:37:12.538Z,101497.29
2017-12-17T18:39:40.899Z,101496.13
2017-12-17T18:42:09.260Z,101494.28
2017-12-17T18:44:37.603Z,101492.70
2017-12-17T18:47:05.923Z,101492.02
2017-12-17T18:49:35.119Z,101483.83
2017-12-17T18:52:04.358Z,101488.60
2017-12-17T18:54:32.791Z,101484.52
2017-12-17T18:57:01.116Z,101491.97
2017-12-17T18:59:29.452Z,101493.82
2017-12-17T19:01:58.657Z,101491.05
2017-12-17T19:04:27.177Z,101491.13
2017-12-17T19:06:55.509Z,101493.95
2017-12-17T19:09:24.645Z,101493.73
2017-12-17T19:11:52.970Z,101487.72
2017-12-17T19:14:21.446Z,101492.38
2017-12-17T19:16:49.903Z,101502.52
2017-12-17T19:19:18.305Z,101495.27
2017-12-17T19:21:46.656Z,101504.00
2017-12-17T19:24:14.981Z,101472.69
2017-12-17T19:26:43.291Z,101501.05
2017-12-17T19:29:11.635Z,101502.24
2017-12-17T19:31:40.740Z,101501.22
2017-12-17T19:34:09.073Z,101499.33
2017-12-17T19:36:37.391Z,101500.80
2017-12-17T19:39:06.505Z,101493.00
2017-12-17T19:41:34.895Z,101497.48
2017-12-17T19:44:03.216Z,101496.18
2017-12-17T19:46:31.547Z,101499.14
2017-12-17T19:49:05.010Z,101495.77
2017-12-17T19:51:34.355Z,101491.41
2017-12-17T19:54:02.723Z,101483.92
2017-12-17T19:56:31.047Z,101490.73
2017-12-17T19:59:00.176Z,101489.28
2017-12-17T20:01:28.530Z,101497.57
2017-12-17T20:03:57.620Z,101500.85
2017-12-17T20:06:25.955Z,101493.50
2017-12-17T20:08:54.312Z,101498.64
2017-12-17T20:11:22.655Z,101498.13
2017-12-17T20:13:50.992Z,101503.27
2017-12-17T20:16:19.391Z,101506.73
2017-12-17T20:18:47.708Z,101503.30
2017-12-17T20:21:16.016Z,101513.85
2017-12-17T20:23:44.390Z,101514.73
2017-12-17T20:26:12.733Z,101514.03
2017-12-17T20:28:41.086Z,101510.38
2017-12-17T20:31:09.452Z,101513.06
2017-12-17T20:33:37.803Z,101519.62
2017-12-17T20:36:06.179Z,101524.02
2017-12-17T20:38:34.527Z,101519.69
2017-12-17T20:41:02.882Z,101523.88
2017-12-17T20:43:31.968Z,101513.84
2017-12-17T20:46:00.320Z,101512.52
2017-12-17T20:48:28.668Z,101518.37
2017-12-17T20:50:57.017Z,101521.52
2017-12-17T20:53:25.362Z,101525.27
2017-12-17T20:55:53.691Z,101521.52
2017-12-17T20:58:22.036Z,101522.67
2017-12-17T21:00:50.384Z,101511.67
2017-12-17T21:03:18.723Z,101514.12
2017-12-17T21:05:47.092Z,101518.75
2017-12-17T21:08:15.443Z,101512.92
2017-12-17T21:10:43.776Z,101514.08
2017-12-17T21:13:12.317Z,101509.86
2017-12-17T21:15:41.411Z,101505.55
2017-12-17T21:18:10.505Z,101509.20
2017-12-17T21:20:39.656Z,101513.50
2017-12-17T21:23:07.982Z,101503.48
2017-12-17T21:25:37.144Z,101499.41
2017-12-17T21:28:06.366Z,101503.29
2017-12-17T21:30:34.700Z,101503.16
2017-12-17T21:33:03.029Z,101505.88
2017-12-17T21:35:32.224Z,101507.59
2017-12-17T21:38:01.365Z,101512.02
2017-12-17T21:40:29.817Z,101510.41
2017-12-17T21:42:58.164Z,101512.63
2017-12-17T21:45:26.501Z,101515.83
2017-12-17T21:47:54.834Z,101514.86
2017-12-17T21:50:23.193Z,101518.75
2017-12-17T21:52:51.512Z,101518.52
2017-12-17T21:55:19.845Z,101515.22
2017-12-17T21:57:48.211Z,101529.71
2017-12-17T22:00:16.642Z,101533.60
2017-12-17T22:02:45.019Z,101531.87
2017-12-17T22:05:13.375Z,101535.63
2017-12-17T22:07:42.460Z,101533.36
2017-12-17T22:10:10.952Z,101534.02
2017-12-17T22:12:39.298Z,101537.56
2017-12-17T22:15:07.633Z,101525.89
2017-12-17T22:17:35.985Z,101535.19
2017-12-17T22:20:05.074Z,101526.57
2017-12-17T22:22:33.406Z,101521.31
2017-12-17T22:25:01.732Z,101518.41
2017-12-17T22:27:30.835Z,101520.24
2017-12-17T22:29:59.927Z,101519.17
2017-12-17T22:32:28.292Z,101519.28
2017-12-17T22:34:56.666Z,101524.64
2017-12-17T22:37:24.979Z,101529.27
2017-12-17T22:39:53.343Z,101521.73
2017-12-17T22:42:22.475Z,101524.13
2017-12-17T22:44:50.851Z,101519.88
2017-12-17T22:47:19.172Z,101528.86
2017-12-17T22:49:47.507Z,101525.80
2017-12-17T22:52:15.839Z,101521.58
2017-12-17T22:54:44.204Z,101517.20
2017-12-17T22:57:12.572Z,101514.66
2017-12-17T22:59:40.927Z,101516.23
2017-12-17T23:02:09.270Z,101516.93
2017-12-17T23:04:37.619Z,101511.89
2017-12-17T23:07:06.751Z,101511.80
2017-12-17T23:09:35.096Z,101507.37
2017-12-17T23:12:04.188Z,101497.38
2017-12-17T23:14:32.542Z,101496.37
2017-12-17T23:17:00.869Z,101491.69
2017-12-17T23:19:29.211Z,101484.63
2017-12-17T23:21:57.601Z,101481.62
2017-12-17T23:24:26.720Z,101475.19
2017-12-17T23:26:55.057Z,101473.38
2017-12-17T23:29:23.432Z,101467.27
2017-12-17T23:31:52.536Z,101463.07
2017-12-17T23:34:20.880Z,101455.53
2017-12-17T23:36:49.204Z,101450.50
2017-12-17T23:39:17.575Z,101458.35
2017-12-17T23:41:46.670Z,101454.61
2017-12-17T23:44:15.906Z,101450.41
2017-12-17T23:46:44.225Z,101452.67
2017-12-17T23:49:12.701Z,101447.48
2017-12-17T23:51:41.040Z,101442.22
2017-12-17T23:54:09.383Z,101447.25
2017-12-17T23:56:37.702Z,101440.09
2017-12-17T23:59:06.072Z,101446.05
